Alsace Manor, Pennsylvania
Current Conditions -  °F | °C
As of 12:54 AM on Wednesday 28 Jan 2015 (Local Time) from KRDG Reporting Station
Clear Clear  
Wind Chill: -17°   Ceiling: Unl
Heat Index: -8°   Visibility: 10mi
Dew Point: -16°   Wind: 18mph
Humidity: 56%   Direction: 320°NW
Pressure: 29.96"   Gusts: 29mph
Location:  40.4008°N, 75.8851°W
Report Text: KRDG 280554Z 32016G25KT 10SM CLR M08/M16 A2996 RMK AO2 SLP155 T10831156 11033 21083 51018
Loading
Personal Weather Stations






























Interactive Weather Map New forecast layout! Learn more

10-Day Weather Forecast

Advertisements
Track Severe Weather on mobile